Canton, Georgia
Current Conditions -  °F | °C
As of 8:55 PM on Friday 31 Oct 2014 (Local Time) from KCNI Reporting Station
Overcast Overcast  
Wind Chill: 38°   Ceiling: 2300
Heat Index: 45°   Visibility: 10mi
Dew Point: 36°   Wind: 14mph
Humidity: 71%   Direction: 320°NW
Pressure: 29.92"   Gusts: 29mph
Location:  34.25°N, 84.49°W
Report Text: KCNI 010055Z AUTO 32012G25KT 280V360 10SM SCT016 BKN023 OVC032 07/02 A2992 RMK AO2
Loading
Personal Weather Stations






























Interactive Weather Map
Tropical Storm Tracking
New forecast layout! Learn more

10-Day Weather Forecast

Advertisements
Track Severe Weather on mobile